Time,TemperatureF,DewpointF,PressureIn,WindDirection,WindDirectionDegrees,WindSpeedMPH,WindSpeedGustMPH,Humidity,HourlyPrecipIn,Conditions,Clouds,dailyrainin,SoftwareType,DateUTC
2013-04-13 00:02:00,30.0,30.0,-100.00,NW,305,0.0,0.0,99,-99.99,,,-99.99,,2013-04-13 05:02:00,
2013-04-13 00:32:00,30.0,30.0,-100.00,NW,305,0.0,0.0,99,-99.99,,,-99.99,,2013-04-13 05:32:00,
2013-04-13 00:43:00,30.0,30.0,-100.00,NW,305,0.0,0.0,99,-99.99,,,-99.99,,2013-04-13 05:43:00,
2013-04-13 00:52:00,30.0,30.0,-100.00,NW,305,0.0,0.0,99,-99.99,,,-99.99,,2013-04-13 05:52:00,
2013-04-13 01:02:00,31.0,30.0,-100.00,WSW,245,2.0,4.0,99,-99.99,,,-99.99,,2013-04-13 06:02:00,
2013-04-13 01:36:00,31.0,30.0,-100.00,WSW,245,2.0,4.0,99,-99.99,,,-99.99,,2013-04-13 06:36:00,
2013-04-13 01:49:00,31.0,30.0,-100.00,WSW,245,2.0,4.0,99,-99.99,,,-99.99,,2013-04-13 06:49:00,
2013-04-13 01:55:00,31.0,30.0,-100.00,WSW,245,2.0,4.0,99,-99.99,,,-99.99,,2013-04-13 06:55:00,
2013-04-13 02:02:00,31.0,31.0,-100.00,SW,220,1.0,2.0,99,-99.99,,,-99.99,,2013-04-13 07:02:00,
2013-04-13 02:35:00,31.0,31.0,-100.00,SW,220,1.0,2.0,99,-99.99,,,-99.99,,2013-04-13 07:35:00,
2013-04-13 02:45:00,31.0,31.0,-100.00,SW,220,1.0,2.0,99,-99.99,,,-99.99,,2013-04-13 07:45:00,
2013-04-13 02:56:00,31.0,31.0,-100.00,SW,220,1.0,2.0,99,-99.99,,,-99.99,,2013-04-13 07:56:00,
2013-04-13 03:02:00,31.0,30.0,-100.00,SW,225,0.0,1.0,99,-99.99,,,-99.99,,2013-04-13 08:02:00,
2013-04-13 03:35:00,31.0,30.0,-100.00,SW,225,0.0,1.0,99,-99.99,,,-99.99,,2013-04-13 08:35:00,
2013-04-13 03:47:00,31.0,30.0,-100.00,SW,225,0.0,1.0,99,-99.99,,,-99.99,,2013-04-13 08:47:00,
2013-04-13 03:54:00,31.0,30.0,-100.00,SW,225,0.0,1.0,99,-99.99,,,-99.99,,2013-04-13 08:54:00,
2013-04-13 04:02:00,31.0,30.0,-100.00,ESE,110,2.0,2.0,99,-99.99,,,-99.99,,2013-04-13 09:02:00,
2013-04-13 04:38:00,31.0,30.0,-100.00,ESE,110,2.0,2.0,99,-99.99,,,-99.99,,2013-04-13 09:38:00,
2013-04-13 04:53:00,31.0,30.0,-100.00,ESE,110,2.0,2.0,99,-99.99,,,-99.99,,2013-04-13 09:53:00,
2013-04-13 05:02:00,31.0,31.0,-100.00,ESE,105,4.0,6.0,99,-99.99,,,-99.99,,2013-04-13 10:02:00,
2013-04-13 05:38:00,31.0,31.0,-100.00,ESE,105,4.0,6.0,99,-99.99,,,-99.99,,2013-04-13 10:38:00,
2013-04-13 05:50:00,31.0,31.0,-100.00,ESE,105,4.0,6.0,99,-99.99,,,-99.99,,2013-04-13 10:50:00,
2013-04-13 05:55:00,31.0,31.0,-100.00,ESE,105,4.0,6.0,99,-99.99,,,-99.99,,2013-04-13 10:55:00,
2013-04-13 06:02:00,29.0,29.0,-100.00,East,95,7.0,9.0,99,-99.99,,,-99.99,,2013-04-13 11:02:00,
2013-04-13 06:35:00,29.0,29.0,-100.00,East,95,7.0,9.0,99,-99.99,,,-99.99,,2013-04-13 11:35:00,
2013-04-13 06:46:00,29.0,29.0,-100.00,East,95,7.0,9.0,99,-99.99,,,-99.99,,2013-04-13 11:46:00,
2013-04-13 06:54:00,29.0,29.0,-100.00,East,95,7.0,9.0,99,-99.99,,,-99.99,,2013-04-13 11:54:00,
2013-04-13 07:02:00,29.0,29.0,-100.00,East,100,9.0,10.0,99,-99.99,,,-99.99,,2013-04-13 12:02:00,
2013-04-13 07:37:00,29.0,29.0,-100.00,East,100,9.0,10.0,99,-99.99,,,-99.99,,2013-04-13 12:37:00,
2013-04-13 07:48:00,29.0,29.0,-100.00,East,100,9.0,10.0,99,-99.99,,,-99.99,,2013-04-13 12:48:00,
2013-04-13 07:55:00,29.0,29.0,-100.00,East,100,9.0,10.0,99,-99.99,,,-99.99,,2013-04-13 12:55:00,
2013-04-13 08:02:00,29.0,29.0,-100.00,East,100,6.0,8.0,99,-99.99,,,-99.99,,2013-04-13 13:02:00,
2013-04-13 08:49:00,29.0,29.0,-100.00,East,100,6.0,8.0,99,-99.99,,,-99.99,,2013-04-13 13:49:00,
2013-04-13 08:56:00,29.0,29.0,-100.00,East,100,6.0,8.0,99,-99.99,,,-99.99,,2013-04-13 13:56:00,
2013-04-13 09:02:00,30.0,30.0,-100.00,ESE,110,5.0,6.0,99,-99.99,,,-99.99,,2013-04-13 14:02:00,
2013-04-13 09:39:00,30.0,30.0,-100.00,ESE,110,5.0,6.0,99,-99.99,,,-99.99,,2013-04-13 14:39:00,
2013-04-13 09:48:00,30.0,30.0,-100.00,ESE,110,5.0,6.0,99,-99.99,,,-99.99,,2013-04-13 14:48:00,
2013-04-13 09:59:00,30.0,30.0,-100.00,ESE,110,5.0,6.0,99,-99.99,,,-99.99,,2013-04-13 14:59:00,
2013-04-13 10:02:00,33.0,32.0,-100.00,East,100,8.0,11.0,99,-99.99,,,-99.99,,2013-04-13 15:02:00,
2013-04-13 10:38:00,33.0,32.0,-100.00,East,100,8.0,11.0,99,-99.99,,,-99.99,,2013-04-13 15:38:00,
2013-04-13 10:45:00,33.0,32.0,-100.00,East,100,8.0,11.0,99,-99.99,,,-99.99,,2013-04-13 15:45:00,
2013-04-13 10:58:00,33.0,32.0,-100.00,East,100,8.0,11.0,99,-99.99,,,-99.99,,2013-04-13 15:58:00,
2013-04-13 11:02:00,33.0,33.0,-100.00,ESE,110,9.0,11.0,99,-99.99,,,-99.99,,2013-04-13 16:02:00,
2013-04-13 11:37:00,33.0,33.0,-100.00,ESE,110,9.0,11.0,99,-99.99,,,-99.99,,2013-04-13 16:37:00,
2013-04-13 11:48:00,33.0,33.0,-100.00,ESE,110,9.0,11.0,99,-99.99,,,-99.99,,2013-04-13 16:48:00,
2013-04-13 11:56:00,33.0,33.0,-100.00,ESE,110,9.0,11.0,99,-99.99,,,-99.99,,2013-04-13 16:56:00,
2013-04-13 12:02:00,36.0,35.0,-100.00,ESE,115,7.0,11.0,99,-99.99,,,-99.99,,2013-04-13 17:02:00,
2013-04-13 12:38:00,36.0,35.0,-100.00,ESE,115,7.0,11.0,99,-99.99,,,-99.99,,2013-04-13 17:38:00,
2013-04-13 12:45:00,36.0,35.0,-100.00,ESE,115,7.0,11.0,99,-99.99,,,-99.99,,2013-04-13 17:45:00,
2013-04-13 13:02:00,37.0,33.0,-100.00,East,95,11.0,14.0,86,-99.99,,,-99.99,,2013-04-13 18:02:00,
2013-04-13 13:33:00,37.0,33.0,-100.00,East,95,11.0,14.0,86,-99.99,,,-99.99,,2013-04-13 18:33:00,
2013-04-13 13:42:00,37.0,33.0,-100.00,East,95,11.0,14.0,86,-99.99,,,-99.99,,2013-04-13 18:42:00,
2013-04-13 13:53:00,37.0,33.0,-100.00,East,95,11.0,14.0,86,-99.99,,,-99.99,,2013-04-13 18:53:00,
2013-04-13 14:02:00,39.0,30.0,-100.00,ESE,120,10.0,14.0,70,-99.99,,,-99.99,,2013-04-13 19:02:00,
2013-04-13 14:33:00,39.0,30.0,-100.00,ESE,120,10.0,14.0,70,-99.99,,,-99.99,,2013-04-13 19:33:00,
2013-04-13 14:42:00,39.0,30.0,-100.00,ESE,120,10.0,14.0,70,-99.99,,,-99.99,,2013-04-13 19:42:00,
2013-04-13 14:53:00,39.0,30.0,-100.00,ESE,120,10.0,14.0,70,-99.99,,,-99.99,,2013-04-13 19:53:00,
2013-04-13 15:02:00,42.0,30.0,-100.00,East,100,12.0,16.0,63,-99.99,,,-99.99,,2013-04-13 20:02:00,
2013-04-13 15:32:00,42.0,30.0,-100.00,East,100,12.0,16.0,63,-99.99,,,-99.99,,2013-04-13 20:32:00,
2013-04-13 15:42:00,42.0,30.0,-100.00,East,100,12.0,16.0,63,-99.99,,,-99.99,,2013-04-13 20:42:00,
2013-04-13 15:52:00,42.0,30.0,-100.00,East,100,12.0,16.0,63,-99.99,,,-99.99,,2013-04-13 20:52:00,
2013-04-13 16:02:00,42.0,29.0,-100.00,East,100,14.0,17.0,60,-99.99,,,-99.99,,2013-04-13 21:02:00,
2013-04-13 16:33:00,42.0,29.0,-100.00,East,100,14.0,17.0,60,-99.99,,,-99.99,,2013-04-13 21:33:00,
2013-04-13 16:43:00,42.0,29.0,-100.00,East,100,14.0,17.0,60,-99.99,,,-99.99,,2013-04-13 21:43:00,
2013-04-13 16:53:00,42.0,29.0,-100.00,East,100,14.0,17.0,60,-99.99,,,-99.99,,2013-04-13 21:53:00,
2013-04-13 17:02:00,40.0,28.0,-100.00,ESE,105,12.0,16.0,62,-99.99,,,-99.99,,2013-04-13 22:02:00,
2013-04-13 17:33:00,40.0,28.0,-100.00,ESE,105,12.0,16.0,62,-99.99,,,-99.99,,2013-04-13 22:33:00,
2013-04-13 17:42:00,40.0,28.0,-100.00,ESE,105,12.0,16.0,62,-99.99,,,-99.99,,2013-04-13 22:42:00,
2013-04-13 17:53:00,40.0,28.0,-100.00,ESE,105,12.0,16.0,62,-99.99,,,-99.99,,2013-04-13 22:53:00,
2013-04-13 18:02:00,38.0,28.0,-100.00,ESE,110,16.0,20.0,69,-99.99,,,-99.99,,2013-04-13 23:02:00,
2013-04-13 18:33:00,38.0,28.0,-100.00,ESE,110,16.0,20.0,69,-99.99,,,-99.99,,2013-04-13 23:33:00,
2013-04-13 18:43:00,38.0,28.0,-100.00,ESE,110,16.0,20.0,69,-99.99,,,-99.99,,2013-04-13 23:43:00,
2013-04-13 18:53:00,38.0,28.0,-100.00,ESE,110,16.0,20.0,69,-99.99,,,-99.99,,2013-04-13 23:53:00,
2013-04-13 19:02:00,36.0,29.0,-100.00,ESE,105,14.0,18.0,73,-99.99,,,-99.99,,2013-04-14 00:02:00,
2013-04-13 19:32:00,36.0,29.0,-100.00,ESE,105,14.0,18.0,73,-99.99,,,-99.99,,2013-04-14 00:32:00,
2013-04-13 19:42:00,36.0,29.0,-100.00,ESE,105,14.0,18.0,73,-99.99,,,-99.99,,2013-04-14 00:42:00,
2013-04-13 19:52:00,36.0,29.0,-100.00,ESE,105,14.0,18.0,73,-99.99,,,-99.99,,2013-04-14 00:52:00,
2013-04-13 20:02:00,34.0,28.0,-100.00,ESE,110,14.0,17.0,78,-99.99,,,-99.99,,2013-04-14 01:02:00,
2013-04-13 20:33:00,34.0,28.0,-100.00,ESE,110,14.0,17.0,78,-99.99,,,-99.99,,2013-04-14 01:33:00,
2013-04-13 20:42:00,34.0,28.0,-100.00,ESE,110,14.0,17.0,78,-99.99,,,-99.99,,2013-04-14 01:42:00,
2013-04-13 20:53:00,34.0,28.0,-100.00,ESE,110,14.0,17.0,78,-99.99,,,-99.99,,2013-04-14 01:53:00,
2013-04-13 22:02:00,31.0,27.0,-100.00,ESE,120,12.0,13.0,86,-99.99,,,-99.99,,2013-04-14 03:02:00,
2013-04-13 22:33:00,31.0,27.0,-100.00,ESE,120,12.0,13.0,86,-99.99,,,-99.99,,2013-04-14 03:33:00,
2013-04-13 22:43:00,31.0,27.0,-100.00,ESE,120,12.0,13.0,86,-99.99,,,-99.99,,2013-04-14 03:43:00,
2013-04-13 22:53:00,31.0,27.0,-100.00,ESE,120,12.0,13.0,86,-99.99,,,-99.99,,2013-04-14 03:53:00,
2013-04-13 23:02:00,30.0,27.0,-100.00,East,100,11.0,14.0,87,-99.99,,,-99.99,,2013-04-14 04:02:00,
2013-04-13 23:33:00,30.0,27.0,-100.00,East,100,11.0,14.0,87,-99.99,,,-99.99,,2013-04-14 04:33:00,
2013-04-13 23:43:00,30.0,27.0,-100.00,East,100,11.0,14.0,87,-99.99,,,-99.99,,2013-04-14 04:43:00,
2013-04-13 23:52:00,30.0,27.0,-100.00,East,100,11.0,14.0,87,-99.99,,,-99.99,,2013-04-14 04:52:00,